NOU weather

La Tontouta International Airport
Nouméa, New Caledonia

Public forecast

Using degrees Celsius for public forecast. Weather courtesy of forecast.io.

METAR (pilot weather report)

Retrieved 2019/03/20 12:30 UTC (29 minutes ago):

NWWW 201230Z AUTO 04004KT 350V090 9999 BKN052 24/21 Q1013 NOSIG

TAF (pilot weather forecast)

Retrieved 2019/03/20 12:00 UTC (59 minutes ago):

TAF NWWW 201100Z 2012/2112 VRB02KT 9999 SCT040 TEMPO 2100/2106 SHRA FEW020TCU